createdAt,value
2022-11-10T00:01:12.242Z,8.13
2022-11-10T00:04:01.140Z,8.70
2022-11-10T00:06:48.497Z,8.45
2022-11-10T00:09:35.541Z,8.10
2022-11-10T00:12:24.169Z,8.90
2022-11-10T00:15:29.824Z,9.27
2022-11-10T00:18:17.167Z,9.45
2022-11-10T00:21:07.464Z,8.98
2022-11-10T00:23:54.849Z,9.80
2022-11-10T00:26:42.121Z,9.15
2022-11-10T00:29:29.179Z,10.23
2022-11-10T00:32:16.562Z,8.50
2022-11-10T00:35:03.871Z,8.60
2022-11-10T00:37:52.719Z,8.90
2022-11-10T00:40:41.835Z,7.90
2022-11-10T00:43:29.322Z,8.88
2022-11-10T00:46:17.169Z,9.32
2022-11-10T00:49:04.123Z,9.10
2022-11-10T00:51:50.968Z,9.35
2022-11-10T00:54:40.509Z,9.57
2022-11-10T00:57:27.935Z,9.13
2022-11-10T01:00:15.405Z,10.07
2022-11-10T01:03:03.372Z,10.38
2022-11-10T01:05:50.405Z,9.83
2022-11-10T01:08:37.992Z,9.52
2022-11-10T01:11:28.637Z,9.15
2022-11-10T01:14:16.177Z,9.45
2022-11-10T01:17:03.266Z,10.30
2022-11-10T01:19:50.656Z,10.07
2022-11-10T01:22:37.917Z,9.20
2022-11-10T01:25:25.039Z,9.80
2022-11-10T01:28:15.253Z,9.52
2022-11-10T01:31:04.360Z,9.98
2022-11-10T01:33:51.468Z,9.10
2022-11-10T01:36:38.730Z,9.35
2022-11-10T01:39:26.006Z,9.82
2022-11-10T01:42:13.457Z,9.70
2022-11-10T01:45:40.974Z,9.82
2022-11-10T01:48:34.433Z,10.13
2022-11-10T01:51:36.307Z,10.07
2022-11-10T01:54:27.721Z,9.07
2022-11-10T01:57:16.522Z,10.00
2022-11-10T02:00:05.963Z,9.70
2022-11-10T02:02:59.498Z,9.45
2022-11-10T02:05:46.492Z,9.88
2022-11-10T02:08:34.217Z,10.35
2022-11-10T02:11:21.978Z,9.38
2022-11-10T02:14:09.995Z,9.30
2022-11-10T02:16:57.634Z,9.63
2022-11-10T02:19:46.877Z,9.55
2022-11-10T02:22:35.655Z,10.73
2022-11-10T02:25:24.708Z,10.82
2022-11-10T02:28:11.952Z,10.65
2022-11-10T02:30:59.251Z,9.80
2022-11-10T02:33:46.581Z,11.00
2022-11-10T02:36:33.643Z,9.90
2022-11-10T02:39:22.170Z,11.77
2022-11-10T02:42:11.525Z,10.80
2022-11-10T02:44:59.178Z,11.10
2022-11-10T02:47:46.287Z,11.00
2022-11-10T02:50:33.703Z,11.63
2022-11-10T02:53:21.633Z,11.57
2022-11-10T02:56:10.614Z,10.10
2022-11-10T02:58:57.935Z,12.20
2022-11-10T03:01:45.648Z,11.90
2022-11-10T03:04:32.730Z,11.27
2022-11-10T03:07:19.875Z,11.20
2022-11-10T03:10:07.739Z,12.45
2022-11-10T03:12:57.216Z,11.35
2022-11-10T03:15:44.627Z,11.48
2022-11-10T03:18:31.708Z,11.30
2022-11-10T03:21:18.856Z,12.45
2022-11-10T03:24:06.997Z,11.85
2022-11-10T03:26:54.012Z,10.77
2022-11-10T03:29:42.291Z,12.88
2022-11-10T03:35:16.871Z,11.10
2022-11-10T03:38:04.611Z,11.50
2022-11-10T03:44:01.388Z,11.65
2022-11-10T03:46:51.762Z,11.32
2022-11-10T03:49:38.964Z,11.95
2022-11-10T03:52:26.454Z,11.55
2022-11-10T03:55:14.742Z,11.30
2022-11-10T03:58:04.015Z,11.90
2022-11-10T04:00:55.045Z,11.93
2022-11-10T04:03:48.796Z,12.20
2022-11-10T04:06:55.738Z,11.18
2022-11-10T04:09:42.997Z,11.18
2022-11-10T04:12:49.123Z,11.77
2022-11-10T04:15:44.982Z,12.02
2022-11-10T04:18:35.181Z,11.73
2022-11-10T04:21:24.006Z,12.15
2022-11-10T04:24:32.728Z,11.98
2022-11-10T04:27:20.049Z,12.75
2022-11-10T04:30:09.103Z,11.32
2022-11-10T04:32:56.732Z,11.70
2022-11-10T04:35:44.357Z,12.00
2022-11-10T04:38:33.192Z,12.05
2022-11-10T04:44:07.816Z,12.48
2022-11-10T04:46:55.036Z,12.45
2022-11-10T04:49:42.528Z,11.52
2022-11-10T04:52:31.723Z,13.35
2022-11-10T04:55:20.507Z,12.65
2022-11-10T05:00:55.145Z,12.48
2022-11-10T05:03:42.864Z,12.13
2022-11-10T05:06:30.267Z,13.77
2022-11-10T05:09:17.904Z,12.93
2022-11-10T05:12:06.726Z,13.27
2022-11-10T05:14:54.225Z,13.30
2022-11-10T05:17:41.490Z,12.35
2022-11-10T05:20:29.576Z,12.57
2022-11-10T05:23:34.362Z,12.83
2022-11-10T05:26:21.155Z,12.50
2022-11-10T05:29:09.666Z,13.10
2022-11-10T05:31:56.992Z,13.05
2022-11-10T05:34:44.276Z,12.38
2022-11-10T05:37:32.133Z,13.65
2022-11-10T05:40:19.654Z,12.35
2022-11-10T05:43:06.788Z,12.23
2022-11-10T05:45:55.296Z,12.35
2022-11-10T05:48:42.642Z,11.63
2022-11-10T05:51:29.842Z,12.13
2022-11-10T05:54:17.257Z,13.02
2022-11-10T05:57:04.385Z,12.38
2022-11-10T05:59:51.930Z,12.48
2022-11-10T06:02:40.822Z,13.18
2022-11-10T06:05:31.285Z,14.05
2022-11-10T06:08:19.150Z,14.15
2022-11-10T06:11:07.265Z,13.63
2022-11-10T06:13:54.421Z,12.02
2022-11-10T06:16:41.831Z,12.45
2022-11-10T06:19:30.430Z,12.02
2022-11-10T06:22:17.401Z,12.35
2022-11-10T06:25:04.991Z,11.77
2022-11-10T06:27:52.059Z,12.10
2022-11-10T06:30:39.940Z,12.02
2022-11-10T06:33:27.565Z,13.57
2022-11-10T06:36:16.294Z,11.88
2022-11-10T06:41:51.395Z,12.63
2022-11-10T06:44:38.652Z,11.75
2022-11-10T06:47:26.058Z,12.27
2022-11-10T06:50:13.777Z,12.02
2022-11-10T06:53:03.150Z,11.80
2022-11-10T06:55:50.378Z,10.95
2022-11-10T06:58:37.882Z,11.70
2022-11-10T07:01:26.872Z,10.43
2022-11-10T07:04:20.446Z,10.50
2022-11-10T07:07:08.285Z,10.75
2022-11-10T07:09:56.876Z,10.40
2022-11-10T07:15:33.310Z,9.70
2022-11-10T07:18:20.550Z,10.40
2022-11-10T07:21:08.322Z,9.88
2022-11-10T07:23:55.495Z,10.32
2022-11-10T07:26:43.884Z,10.90
2022-11-10T07:29:33.936Z,9.77
2022-11-10T07:32:21.400Z,8.93
2022-11-10T07:35:09.742Z,10.47
2022-11-10T07:37:57.650Z,9.85
2022-11-10T07:40:44.702Z,9.65
2022-11-10T07:43:33.611Z,9.85
2022-11-10T07:46:21.453Z,10.27
2022-11-10T07:49:09.096Z,9.40
2022-11-10T07:51:56.393Z,9.48
2022-11-10T07:54:43.737Z,10.00
2022-11-10T07:57:39.008Z,10.07
2022-11-10T08:00:31.282Z,10.35
2022-11-10T08:03:21.689Z,10.00
2022-11-10T08:06:10.420Z,10.10
2022-11-10T08:11:44.545Z,10.32
2022-11-10T08:14:31.994Z,10.73
2022-11-10T08:17:23.162Z,10.32
2022-11-10T08:20:11.470Z,10.07
2022-11-10T08:23:01.616Z,13.15
2022-11-10T08:25:53.485Z,12.85
2022-11-10T08:28:40.590Z,12.43
2022-11-10T08:31:27.860Z,12.50
2022-11-10T08:34:16.560Z,10.93
2022-11-10T08:37:03.654Z,10.95
2022-11-10T08:39:50.861Z,11.40
2022-11-10T08:42:38.004Z,10.18
2022-11-10T08:45:25.087Z,10.07
2022-11-10T08:48:14.249Z,11.15
2022-11-10T08:56:36.751Z,10.65
2022-11-10T08:59:23.901Z,11.07
2022-11-10T09:02:11.579Z,11.15
2022-11-10T09:04:59.225Z,11.35
2022-11-10T09:07:49.291Z,10.98
2022-11-10T09:10:37.928Z,10.75
2022-11-10T09:16:18.283Z,11.35
2022-11-10T09:19:05.609Z,10.85
2022-11-10T09:21:52.849Z,10.57
2022-11-10T09:24:41.792Z,10.82
2022-11-10T09:27:28.937Z,11.90
2022-11-10T09:30:18.083Z,11.65
2022-11-10T09:33:05.597Z,10.80
2022-11-10T09:35:53.017Z,11.45
2022-11-10T09:38:40.282Z,11.75
2022-11-10T09:41:31.151Z,11.32
2022-11-10T09:44:27.706Z,11.82
2022-11-10T09:47:55.653Z,12.68
2022-11-10T09:50:42.940Z,10.93
2022-11-10T09:53:34.369Z,10.52
2022-11-10T09:56:51.144Z,13.10
2022-11-10T09:59:40.557Z,11.90
2022-11-10T10:02:33.553Z,12.35
2022-11-10T10:05:41.771Z,14.18
2022-11-10T10:08:40.568Z,12.43
2022-11-10T10:11:48.852Z,12.00
2022-11-10T10:14:59.601Z,12.40
2022-11-10T10:17:58.306Z,11.63
2022-11-10T10:20:55.935Z,13.20
2022-11-10T10:24:08.535Z,12.45
2022-11-10T10:26:57.196Z,11.82
2022-11-10T10:29:48.227Z,12.65
2022-11-10T10:33:37.646Z,13.45
2022-11-10T10:36:50.642Z,10.93
2022-11-10T10:40:20.058Z,11.32
2022-11-10T10:46:49.090Z,11.70
2022-11-10T10:49:47.887Z,13.23
2022-11-10T10:52:37.853Z,11.30
2022-11-10T10:55:30.561Z,13.13
2022-11-10T10:58:24.165Z,12.70
2022-11-10T11:01:24.025Z,13.35
2022-11-10T11:04:30.204Z,12.18
2022-11-10T11:07:23.122Z,11.98
2022-11-10T11:10:23.769Z,12.95
2022-11-10T11:13:16.289Z,12.40
2022-11-10T11:16:05.595Z,12.80
2022-11-10T11:18:53.005Z,12.43
2022-11-10T11:21:54.027Z,13.10
2022-11-10T11:24:50.021Z,12.95
2022-11-10T11:27:51.007Z,13.18
2022-11-10T11:30:56.366Z,14.00
2022-11-10T11:33:50.323Z,12.90
2022-11-10T11:36:48.167Z,11.75
2022-11-10T11:39:47.713Z,13.15
2022-11-10T11:42:49.902Z,13.15
2022-11-10T11:45:47.063Z,13.05
2022-11-10T11:48:51.507Z,14.70
2022-11-10T11:51:46.924Z,13.25
2022-11-10T11:54:49.356Z,14.93
2022-11-10T11:57:46.868Z,14.00
2022-11-10T12:00:44.128Z,13.80
2022-11-10T12:03:47.316Z,14.50
2022-11-10T12:06:50.842Z,14.65
2022-11-10T12:09:48.381Z,13.60
2022-11-10T12:13:06.184Z,13.57
2022-11-10T12:15:59.583Z,13.98
2022-11-10T12:18:55.161Z,11.93
2022-11-10T12:21:51.388Z,12.00
2022-11-10T12:24:57.420Z,12.48
2022-11-10T12:27:51.328Z,14.13
2022-11-10T12:30:39.815Z,12.45
2022-11-10T12:36:22.553Z,13.13
2022-11-10T12:39:20.101Z,12.73
2022-11-10T12:42:15.441Z,13.77
2022-11-10T12:45:08.680Z,13.68
2022-11-10T12:47:59.323Z,14.00
2022-11-10T12:50:53.393Z,12.38
2022-11-10T12:53:49.032Z,12.93
2022-11-10T12:56:40.762Z,12.43
2022-11-10T12:59:32.844Z,11.93
2022-11-10T13:02:31.448Z,12.57
2022-11-10T13:05:32.392Z,12.95
2022-11-10T13:08:31.015Z,13.23
2022-11-10T13:11:30.457Z,12.85
2022-11-10T13:14:26.385Z,11.73
2022-11-10T13:17:55.837Z,13.07
2022-11-10T13:20:51.284Z,12.30
2022-11-10T13:24:21.073Z,13.63
2022-11-10T13:27:13.353Z,12.35
2022-11-10T13:30:01.450Z,11.93
2022-11-10T13:32:50.253Z,13.05
2022-11-10T13:38:44.532Z,12.98
2022-11-10T13:41:34.862Z,13.15
2022-11-10T13:44:25.735Z,12.90
2022-11-10T13:47:46.859Z,13.40
2022-11-10T13:50:54.283Z,12.80
2022-11-10T13:53:52.133Z,13.27
2022-11-10T13:56:52.552Z,10.98
2022-11-10T13:59:49.028Z,12.73
2022-11-10T14:02:50.607Z,12.55
2022-11-10T14:06:08.741Z,12.65
2022-11-10T14:09:01.563Z,12.25
2022-11-10T14:11:52.041Z,13.48
2022-11-10T14:14:50.550Z,13.52
2022-11-10T14:17:42.717Z,13.57
2022-11-10T14:20:40.661Z,14.43
2022-11-10T14:23:37.532Z,13.25
2022-11-10T14:26:29.382Z,13.15
2022-11-10T14:29:28.520Z,12.68
2022-11-10T14:32:19.837Z,13.68
2022-11-10T14:35:08.451Z,13.32
2022-11-10T14:38:25.374Z,13.13
2022-11-10T14:41:20.349Z,14.23
2022-11-10T14:44:13.358Z,14.32
2022-11-10T14:47:18.995Z,15.10
2022-11-10T14:54:04.410Z,14.15
2022-11-10T14:56:54.672Z,15.23
2022-11-10T15:04:05.803Z,13.82
2022-11-10T15:06:54.207Z,14.60
2022-11-10T15:09:42.124Z,15.17
2022-11-10T15:12:32.487Z,14.60
2022-11-10T15:15:24.539Z,16.52
2022-11-10T15:18:31.413Z,14.55
2022-11-10T15:21:34.423Z,14.90
2022-11-10T15:24:28.574Z,15.45
2022-11-10T15:27:25.557Z,15.27
2022-11-10T15:30:25.131Z,17.13
2022-11-10T15:33:13.000Z,15.02
2022-11-10T15:36:17.633Z,14.98
2022-11-10T15:39:08.619Z,15.95
2022-11-10T15:42:01.835Z,14.98
2022-11-10T15:44:49.239Z,15.45
2022-11-10T15:47:37.999Z,16.08
2022-11-10T15:50:29.592Z,14.98
2022-11-10T15:53:31.016Z,14.40
2022-11-10T15:56:20.958Z,15.98
2022-11-10T15:59:12.172Z,15.50
2022-11-10T16:02:03.066Z,16.50
2022-11-10T16:05:13.904Z,16.38
2022-11-10T16:08:01.601Z,17.02
2022-11-10T16:10:53.242Z,15.23
2022-11-10T16:13:41.136Z,14.90
2022-11-10T16:16:29.015Z,16.33
2022-11-10T16:19:16.087Z,14.88
2022-11-10T16:22:04.531Z,15.52
2022-11-10T16:24:52.158Z,15.93
2022-11-10T16:27:44.082Z,15.57
2022-11-10T16:30:54.748Z,17.33
2022-11-10T16:33:43.046Z,15.57
2022-11-10T16:36:37.492Z,16.13
2022-11-10T16:39:27.686Z,16.35
2022-11-10T16:42:31.318Z,15.32
2022-11-10T16:45:33.493Z,15.80
2022-11-10T16:48:26.373Z,17.45
2022-11-10T16:51:14.413Z,15.75
2022-11-10T16:54:01.384Z,17.52
2022-11-10T16:56:50.090Z,19.30
2022-11-10T16:59:37.272Z,17.85
2022-11-10T17:02:30.523Z,17.00
2022-11-10T17:05:18.068Z,16.58
2022-11-10T17:08:06.260Z,16.73
2022-11-10T17:10:56.916Z,15.95
2022-11-10T17:13:45.939Z,17.65
2022-11-10T17:16:35.203Z,17.75
2022-11-10T17:19:27.996Z,15.93
2022-11-10T17:22:19.921Z,16.17
2022-11-10T17:25:14.190Z,17.73
2022-11-10T17:28:01.820Z,16.40
2022-11-10T17:30:52.601Z,16.27
2022-11-10T17:33:40.336Z,16.90
2022-11-10T17:36:27.547Z,16.73
2022-11-10T17:39:18.488Z,17.65
2022-11-10T17:42:13.697Z,15.80
2022-11-10T17:45:00.942Z,18.10
2022-11-10T17:47:51.688Z,16.75
2022-11-10T17:50:42.607Z,15.55
2022-11-10T17:53:29.648Z,17.60
2022-11-10T17:56:16.791Z,16.70
2022-11-10T17:59:03.808Z,15.23
2022-11-10T18:01:51.209Z,16.75
2022-11-10T18:04:39.648Z,15.55
2022-11-10T18:07:26.849Z,17.98
2022-11-10T18:10:15.886Z,16.63
2022-11-10T18:13:03.380Z,17.10
2022-11-10T18:15:56.887Z,16.02
2022-11-10T18:18:44.027Z,17.10
2022-11-10T18:21:32.791Z,17.08
2022-11-10T18:27:06.918Z,15.38
2022-11-10T18:29:54.297Z,16.42
2022-11-10T18:32:41.357Z,17.13
2022-11-10T18:35:28.677Z,16.98
2022-11-10T18:38:19.188Z,16.13
2022-11-10T18:41:21.650Z,14.43
2022-11-10T18:44:09.123Z,14.63
2022-11-10T18:46:56.447Z,14.73
2022-11-10T18:49:43.371Z,17.30
2022-11-10T18:52:32.317Z,14.63
2022-11-10T18:55:24.363Z,14.23
2022-11-10T18:58:11.785Z,14.85
2022-11-10T19:01:06.259Z,14.85
2022-11-10T19:03:53.260Z,14.43
2022-11-10T19:06:40.665Z,14.65
2022-11-10T19:09:28.781Z,14.10
2022-11-10T19:15:06.568Z,14.05
2022-11-10T19:17:53.671Z,13.77
2022-11-10T19:20:43.869Z,13.85
2022-11-10T19:23:33.243Z,13.85
2022-11-10T19:26:23.029Z,14.57
2022-11-10T19:29:15.310Z,14.35
2022-11-10T19:32:02.843Z,14.68
2022-11-10T19:34:50.427Z,14.10
2022-11-10T19:37:42.257Z,15.48
2022-11-10T19:40:30.049Z,14.82
2022-11-10T19:43:17.259Z,14.55
2022-11-10T19:46:06.963Z,16.45
2022-11-10T19:48:54.537Z,15.98
2022-11-10T19:51:41.672Z,15.32
2022-11-10T19:54:29.064Z,14.63
2022-11-10T19:57:16.382Z,13.38
2022-11-10T20:00:03.570Z,14.82
2022-11-10T20:02:55.270Z,14.95
2022-11-10T20:05:42.447Z,14.30
2022-11-10T20:08:30.171Z,14.18
2022-11-10T20:11:25.933Z,14.98
2022-11-10T20:14:12.966Z,15.50
2022-11-10T20:17:00.013Z,15.65
2022-11-10T20:19:49.199Z,15.77
2022-11-10T20:22:36.508Z,16.73
2022-11-10T20:25:23.331Z,15.38
2022-11-10T20:28:10.728Z,16.67
2022-11-10T20:31:01.597Z,16.58
2022-11-10T20:33:49.296Z,17.17
2022-11-10T20:36:37.771Z,17.17
2022-11-10T20:39:29.476Z,15.52
2022-11-10T20:42:16.637Z,16.10
2022-11-10T20:45:04.092Z,17.50
2022-11-10T20:47:51.364Z,16.73
2022-11-10T20:50:41.403Z,18.08
2022-11-10T20:53:31.135Z,17.90
2022-11-10T20:56:18.143Z,18.50
2022-11-10T20:59:05.376Z,18.63
2022-11-10T21:01:52.955Z,17.15
2022-11-10T21:04:43.002Z,17.38
2022-11-10T21:07:31.861Z,17.60
2022-11-10T21:10:20.419Z,17.42
2022-11-10T21:13:07.702Z,18.15
2022-11-10T21:15:57.286Z,17.75
2022-11-10T21:18:44.673Z,16.83
2022-11-10T21:21:35.303Z,17.20
2022-11-10T21:24:22.527Z,18.50
2022-11-10T21:27:12.246Z,17.10
2022-11-10T21:29:59.881Z,17.77
2022-11-10T21:32:46.906Z,18.02
2022-11-10T21:35:38.220Z,16.95
2022-11-10T21:38:25.623Z,16.48
2022-11-10T21:41:12.584Z,17.75
2022-11-10T21:44:01.598Z,19.80
2022-11-10T21:46:48.819Z,17.52
2022-11-10T21:49:36.050Z,16.45
2022-11-10T21:52:23.224Z,16.17
2022-11-10T21:55:11.152Z,16.75
2022-11-10T21:57:59.211Z,16.67
2022-11-10T22:00:47.975Z,17.37
2022-11-10T22:06:23.152Z,16.85
2022-11-10T22:09:10.310Z,16.33
2022-11-10T22:12:14.328Z,16.65
2022-11-10T22:15:19.087Z,16.25
2022-11-10T22:18:30.646Z,16.10
2022-11-10T22:21:18.189Z,16.23
2022-11-10T22:24:22.804Z,16.48
2022-11-10T22:27:10.212Z,16.42
2022-11-10T22:29:57.042Z,16.50
2022-11-10T22:32:44.147Z,16.20
2022-11-10T22:35:44.562Z,16.50
2022-11-10T22:38:32.217Z,16.60
2022-11-10T22:41:36.156Z,16.23
2022-11-10T22:44:25.160Z,16.23
2022-11-10T22:47:12.491Z,16.58
2022-11-10T22:49:59.946Z,16.02
2022-11-10T22:52:48.488Z,15.45
2022-11-10T22:55:35.273Z,16.42
2022-11-10T22:58:22.199Z,17.92
2022-11-10T23:01:10.664Z,16.27
2022-11-10T23:06:45.793Z,15.57
2022-11-10T23:09:35.018Z,15.73
2022-11-10T23:12:22.109Z,16.17
2022-11-10T23:15:09.995Z,16.77
2022-11-10T23:18:00.004Z,16.35
2022-11-10T23:20:50.677Z,15.90
2022-11-10T23:23:40.458Z,16.40
2022-11-10T23:26:30.708Z,16.60
2022-11-10T23:29:17.946Z,17.42
2022-11-10T23:32:05.229Z,17.40
2022-11-10T23:34:52.208Z,17.42
2022-11-10T23:37:39.183Z,17.65
2022-11-10T23:40:26.351Z,17.05
2022-11-10T23:43:15.460Z,18.00
2022-11-10T23:46:07.252Z,18.38
2022-11-10T23:48:54.661Z,18.13
2022-11-10T23:51:41.974Z,18.60
2022-11-10T23:54:29.301Z,18.27
2022-11-10T23:57:16.536Z,18.20
